Time;durP1;ratioP1;P1;durP2;ratioP2;P2;SDS_P1;SDS_P2;PMS_P1;PMS_P2;Temp;Humidity;BMP_temperature;BMP_pressure;BME280_temperature;BME280_humidity;BME280_pressure;Samples;Min_cycle;Max_cycle;Signal;HPM_P1;HPM_P2
2021/10/25 00:00:07;;;;;;;11.23;7.07;;;6.90;95.00;;;;;;5073405;28;20083;-90
2021/10/25 00:02:33;;;;;;;10.10;6.72;;;6.80;94.90;;;;;;5072164;28;20522;-91
2021/10/25 00:04:59;;;;;;;11.48;7.43;;;6.80;94.90;;;;;;5076367;28;20051;-89
2021/10/25 00:07:24;;;;;;;13.43;8.13;;;6.80;95.00;;;;;;5076600;28;20384;-90
2021/10/25 00:09:50;;;;;;;11.57;7.25;;;6.80;95.20;;;;;;5077681;28;20096;-91
2021/10/25 00:12:16;;;;;;;11.65;7.60;;;6.80;95.30;;;;;;5076765;28;20059;-90
2021/10/25 00:14:41;;;;;;;11.77;7.68;;;6.80;95.40;;;;;;5076496;28;20044;-90
2021/10/25 00:17:07;;;;;;;11.05;7.47;;;6.80;95.40;;;;;;5094862;28;20059;-91
2021/10/25 00:19:33;;;;;;;11.25;7.13;;;6.80;95.40;;;;;;5083377;28;20044;-89
2021/10/25 00:21:59;;;;;;;11.35;7.15;;;6.70;95.40;;;;;;5055610;28;20048;-90
2021/10/25 00:24:24;;;;;;;11.55;7.30;;;6.70;95.50;;;;;;5074376;28;20048;-90
2021/10/25 00:26:50;;;;;;;9.88;7.18;;;6.70;95.40;;;;;;5056985;28;20049;-92
2021/10/25 00:29:15;;;;;;;9.95;7.15;;;6.70;95.40;;;;;;5074148;28;20040;-90
2021/10/25 00:31:41;;;;;;;10.45;7.07;;;6.70;95.40;;;;;;5056787;28;20051;-91
2021/10/25 00:34:06;;;;;;;13.43;8.20;;;6.70;95.30;;;;;;5056354;28;20101;-90
2021/10/25 00:36:32;;;;;;;12.77;7.20;;;6.70;95.40;;;;;;5056467;28;20041;-91
2021/10/25 00:38:58;;;;;;;10.77;7.38;;;6.60;95.40;;;;;;5055373;28;20205;-90
2021/10/25 00:41:24;;;;;;;10.82;7.10;;;6.60;95.40;;;;;;5073580;28;20426;-91
2021/10/25 00:43:50;;;;;;;10.63;7.13;;;6.60;95.40;;;;;;5063450;28;20062;-91
2021/10/25 00:46:15;;;;;;;12.15;8.00;;;6.60;95.40;;;;;;5076583;28;20106;-90
2021/10/25 00:48:41;;;;;;;10.43;7.13;;;6.60;95.30;;;;;;5078715;28;20040;-90
2021/10/25 00:51:10;;;;;;;10.43;7.32;;;6.60;95.30;;;;;;5080669;28;20044;-91
2021/10/25 00:53:37;;;;;;;11.48;7.38;;;6.60;95.40;;;;;;5099621;28;20070;-90
2021/10/25 00:56:05;;;;;;;12.77;7.30;;;6.50;95.40;;;;;;5078967;28;20124;-91
2021/10/25 00:58:31;;;;;;;10.57;7.07;;;6.50;95.30;;;;;;5079056;28;20044;-90
2021/10/25 01:00:56;;;;;;;11.85;7.35;;;6.50;95.10;;;;;;5079610;28;20055;-91
2021/10/25 01:03:23;;;;;;;12.07;7.88;;;6.50;95.10;;;;;;5079013;28;20043;-92
2021/10/25 01:05:48;;;;;;;11.93;8.07;;;6.50;95.10;;;;;;5079447;28;20036;-90
2021/10/25 01:08:14;;;;;;;12.70;7.82;;;6.50;95.10;;;;;;5079441;28;20097;-91
2021/10/25 01:10:41;;;;;;;11.45;8.07;;;6.40;95.10;;;;;;5079620;28;20097;-90
2021/10/25 01:13:08;;;;;;;11.45;7.53;;;6.40;95.10;;;;;;5080028;28;20115;-90
2021/10/25 01:15:33;;;;;;;12.00;7.72;;;6.40;95.40;;;;;;5080078;28;20428;-89
2021/10/25 01:18:00;;;;;;;11.65;7.75;;;6.40;95.20;;;;;;5071333;28;20083;-90
2021/10/25 01:20:28;;;;;;;10.95;7.15;;;6.40;95.10;;;;;;5059425;28;20071;-90
2021/10/25 01:22:55;;;;;;;11.07;7.78;;;6.30;95.10;;;;;;5066206;28;20123;-91
2021/10/25 01:25:22;;;;;;;11.70;7.75;;;6.30;95.20;;;;;;5078790;28;20048;-90
2021/10/25 01:27:49;;;;;;;13.15;7.57;;;6.30;95.20;;;;;;5079320;28;20123;-90
2021/10/25 01:30:16;;;;;;;9.13;6.80;;;6.30;95.20;;;;;;5068751;28;20037;-90
2021/10/25 01:32:43;;;;;;;9.27;7.28;;;6.30;95.20;;;;;;5066857;28;20047;-90
2021/10/25 01:35:10;;;;;;;10.38;7.57;;;6.30;95.20;;;;;;5078672;28;20040;-90
2021/10/25 01:37:35;;;;;;;12.25;8.23;;;6.30;95.20;;;;;;5078109;28;20067;-90
2021/10/25 01:40:01;;;;;;;10.82;7.38;;;6.30;95.30;;;;;;5060653;28;20137;-90
2021/10/25 01:42:27;;;;;;;13.05;8.00;;;6.30;95.20;;;;;;5077899;28;20037;-89
2021/10/25 01:44:53;;;;;;;11.15;8.23;;;6.30;95.30;;;;;;5058802;28;20045;-89
2021/10/25 01:47:18;;;;;;;11.18;7.95;;;6.20;95.50;;;;;;5077709;28;20051;-89
2021/10/25 01:49:44;;;;;;;10.25;7.25;;;6.20;95.50;;;;;;5076812;28;20043;-89
2021/10/25 01:52:12;;;;;;;11.85;8.38;;;6.20;95.40;;;;;;5095063;28;20061;-90
2021/10/25 01:54:38;;;;;;;10.48;7.28;;;6.20;95.50;;;;;;5079276;28;20036;-90
2021/10/25 01:57:07;;;;;;;11.05;6.82;;;6.20;95.50;;;;;;5096776;28;20048;-89
2021/10/25 01:59:33;;;;;;;10.13;7.00;;;6.20;95.50;;;;;;5077292;28;20472;-90
2021/10/25 02:01:59;;;;;;;10.30;7.63;;;6.20;95.50;;;;;;5078914;28;20067;-89
2021/10/25 02:04:24;;;;;;;9.18;7.10;;;6.20;95.60;;;;;;5079556;28;20043;-90
2021/10/25 02:06:50;;;;;;;11.38;7.97;;;6.20;95.70;;;;;;5078691;28;20048;-89
2021/10/25 02:09:15;;;;;;;11.63;7.35;;;6.20;95.70;;;;;;5079081;28;20044;-89
2021/10/25 02:11:41;;;;;;;11.07;7.47;;;6.20;95.70;;;;;;5078976;28;20047;-89
2021/10/25 02:14:07;;;;;;;12.80;7.90;;;6.20;95.60;;;;;;5096774;28;20516;-90
2021/10/25 02:16:32;;;;;;;11.57;7.30;;;6.20;95.60;;;;;;5079015;28;20048;-89
2021/10/25 02:18:58;;;;;;;11.93;7.30;;;6.10;95.60;;;;;;5063673;28;20077;-89
2021/10/25 02:21:23;;;;;;;11.77;7.30;;;6.10;95.50;;;;;;5058357;28;20064;-90
2021/10/25 02:23:49;;;;;;;13.63;8.93;;;6.10;95.60;;;;;;5076373;28;20036;-89
2021/10/25 02:26:15;;;;;;;10.20;7.35;;;6.10;95.60;;;;;;5058291;28;20076;-90
2021/10/25 02:28:40;;;;;;;11.98;7.78;;;6.20;95.50;;;;;;5075684;28;20454;-89
2021/10/25 02:31:06;;;;;;;11.35;6.80;;;6.10;95.60;;;;;;5078918;28;20048;-90
2021/10/25 02:33:32;;;;;;;11.90;7.65;;;6.10;95.70;;;;;;5071602;28;20045;-89
2021/10/25 02:35:58;;;;;;;11.98;7.55;;;6.10;95.80;;;;;;5058537;28;20044;-90
2021/10/25 02:38:24;;;;;;;11.30;7.88;;;6.10;95.80;;;;;;5058206;28;20048;-88
2021/10/25 02:40:49;;;;;;;11.05;7.72;;;6.10;95.90;;;;;;5058428;28;20399;-91
2021/10/25 02:43:15;;;;;;;9.88;7.10;;;6.10;95.90;;;;;;5058354;28;20044;-91
2021/10/25 02:45:41;;;;;;;10.95;7.38;;;6.10;95.80;;;;;;5075596;28;20510;-89
2021/10/25 02:48:07;;;;;;;12.82;7.85;;;6.10;95.70;;;;;;5076018;28;20118;-90
2021/10/25 02:50:33;;;;;;;12.90;7.90;;;6.10;95.60;;;;;;5095644;28;20051;-88
2021/10/25 02:52:58;;;;;;;11.07;7.80;;;6.10;95.60;;;;;;5096473;28;20056;-89
2021/10/25 02:55:24;;;;;;;11.98;7.72;;;6.10;95.60;;;;;;5078063;28;20471;-90
2021/10/25 02:57:50;;;;;;;11.75;7.63;;;6.10;95.60;;;;;;5078042;28;20147;-90
2021/10/25 03:00:16;;;;;;;12.35;8.40;;;6.10;95.70;;;;;;5069073;28;20048;-88
2021/10/25 03:02:44;;;;;;;10.00;7.78;;;6.10;95.70;;;;;;5057707;28;20054;-89
2021/10/25 03:05:11;;;;;;;13.40;8.25;;;6.10;95.90;;;;;;5056455;28;20094;-89
2021/10/25 03:07:37;;;;;;;11.18;7.57;;;6.10;95.90;;;;;;5074797;28;20059;-89
2021/10/25 03:10:04;;;;;;;11.20;7.78;;;6.10;95.80;;;;;;5055073;28;20402;-88
2021/10/25 03:12:30;;;;;;;11.02;7.80;;;6.10;95.90;;;;;;5057002;28;20048;-88
2021/10/25 03:14:56;;;;;;;10.10;7.35;;;6.10;95.80;;;;;;5056701;28;20045;-90
2021/10/25 03:17:21;;;;;;;11.98;8.10;;;6.10;95.80;;;;;;5057406;28;20052;-89
2021/10/25 03:19:48;;;;;;;11.13;7.78;;;6.10;95.80;;;;;;5076492;28;20047;-89
2021/10/25 03:22:14;;;;;;;11.25;8.10;;;6.10;95.70;;;;;;5076130;28;20100;-90
2021/10/25 03:24:41;;;;;;;11.05;7.63;;;6.10;95.70;;;;;;5056458;28;20049;-91
2021/10/25 03:27:07;;;;;;;11.38;7.57;;;6.00;95.80;;;;;;5074411;28;20380;-89
2021/10/25 03:29:33;;;;;;;12.45;8.27;;;6.00;95.80;;;;;;5074026;28;20040;-89
2021/10/25 03:32:00;;;;;;;11.75;8.25;;;6.00;95.70;;;;;;5074079;28;20113;-88
2021/10/25 03:34:27;;;;;;;11.27;7.93;;;6.10;95.80;;;;;;5056855;28;20187;-88
2021/10/25 03:36:53;;;;;;;13.77;8.43;;;6.00;95.70;;;;;;5083162;28;20089;-90
2021/10/25 03:39:23;;;;;;;11.90;7.88;;;6.00;95.60;;;;;;5075720;28;20101;-88
2021/10/25 03:41:50;;;;;;;13.05;8.10;;;6.00;95.60;;;;;;5076367;28;20066;-88
2021/10/25 03:44:21;;;;;;;11.15;7.88;;;6.00;95.60;;;;;;5074851;28;20093;-88
2021/10/25 03:46:54;;;;;;;11.90;7.75;;;6.00;95.80;;;;;;5075657;28;20050;-88
2021/10/25 03:52:14;;;;;;;11.25;8.40;;;6.00;95.80;;;;;;5092771;28;20079;-86
2021/10/25 04:27:25;;;;;;;14.50;9.52;;;6.20;96.30;;;;;;5074013;28;20051;-89
2021/10/25 04:29:59;;;;;;;14.02;8.45;;;6.20;96.30;;;;;;5075506;28;20074;-88
2021/10/25 04:32:24;;;;;;;14.07;9.68;;;6.30;96.30;;;;;;5076010;28;20048;-89
2021/10/25 04:34:50;;;;;;;15.55;10.23;;;6.20;96.20;;;;;;5075003;28;20521;-88
2021/10/25 04:37:15;;;;;;;13.40;9.40;;;6.30;96.30;;;;;;5074546;28;20116;-89
2021/10/25 04:39:41;;;;;;;13.82;9.02;;;6.30;96.30;;;;;;5075204;28;20032;-88
2021/10/25 04:42:07;;;;;;;15.82;9.85;;;6.30;96.10;;;;;;5073217;28;20048;-89
2021/10/25 04:44:32;;;;;;;11.00;7.43;;;6.30;96.30;;;;;;5055374;28;20039;-88
2021/10/25 04:46:58;;;;;;;10.80;7.70;;;6.30;96.20;;;;;;5054507;28;20040;-88
2021/10/25 04:49:23;;;;;;;13.52;10.05;;;6.40;96.10;;;;;;5054298;28;20072;-88
2021/10/25 04:51:49;;;;;;;11.60;8.45;;;6.40;96.20;;;;;;5072838;28;20098;-87
2021/10/25 04:54:14;;;;;;;13.10;8.20;;;6.40;96.20;;;;;;5072161;28;20045;-88
2021/10/25 04:56:40;;;;;;;15.10;10.75;;;6.40;96.20;;;;;;5072997;28;20079;-87
2021/10/25 04:59:05;;;;;;;14.20;9.18;;;6.40;96.20;;;;;;5054547;28;20044;-88
2021/10/25 05:01:31;;;;;;;16.50;10.18;;;6.40;96.30;;;;;;5084462;28;20941;-89
2021/10/25 05:03:56;;;;;;;13.27;9.45;;;6.50;96.40;;;;;;5074747;28;20062;-88
2021/10/25 05:06:22;;;;;;;15.13;10.10;;;6.50;96.40;;;;;;5075419;28;20044;-88
2021/10/25 05:08:48;;;;;;;11.20;7.45;;;6.50;96.50;;;;;;5074789;28;20067;-88
2021/10/25 05:11:14;;;;;;;12.50;8.43;;;6.50;96.40;;;;;;5070861;28;20118;-88
2021/10/25 05:13:40;;;;;;;11.75;7.75;;;6.60;96.30;;;;;;5074578;28;20109;-88
2021/10/25 05:16:07;;;;;;;13.57;8.90;;;6.60;96.20;;;;;;5054533;28;20048;-88
2021/10/25 05:18:33;;;;;;;12.30;8.13;;;6.60;96.20;;;;;;5080342;28;20149;-89
2021/10/25 05:20:58;;;;;;;13.43;9.23;;;6.60;96.30;;;;;;5093116;28;20139;-89
2021/10/25 05:23:24;;;;;;;12.15;7.75;;;6.60;96.30;;;;;;5092820;28;20391;-89
2021/10/25 05:25:50;;;;;;;13.00;8.07;;;6.70;96.30;;;;;;5092500;28;20032;-89
2021/10/25 05:28:16;;;;;;;12.52;8.30;;;6.70;96.20;;;;;;5075171;28;20532;-88
2021/10/25 05:30:42;;;;;;;13.63;8.60;;;6.70;96.10;;;;;;5075646;28;20040;-90
2021/10/25 05:33:08;;;;;;;11.25;8.43;;;6.70;96.20;;;;;;5060779;28;20482;-89
2021/10/25 05:35:34;;;;;;;21.02;10.93;;;6.70;96.20;;;;;;5064487;28;20046;-90
2021/10/25 05:38:00;;;;;;;13.15;7.72;;;6.80;96.40;;;;;;5076866;28;20119;-89
2021/10/25 05:40:26;;;;;;;12.00;7.53;;;6.80;96.50;;;;;;5063049;28;20111;-89
2021/10/25 05:43:02;;;;;;;14.40;8.30;;;6.90;96.20;;;;;;5096012;28;20444;-88
2021/10/25 05:45:29;;;;;;;13.73;9.35;;;6.90;96.20;;;;;;5058022;28;20111;-90
2021/10/25 05:47:55;;;;;;;12.98;8.23;;;6.90;96.20;;;;;;5070773;28;20059;-90
2021/10/25 05:50:21;;;;;;;14.32;9.88;;;6.90;96.40;;;;;;5066128;28;20040;-90
2021/10/25 05:52:47;;;;;;;13.65;8.35;;;7.00;96.40;;;;;;5060832;28;20399;-83
2021/10/25 05:55:15;;;;;;;17.08;11.02;;;7.00;96.40;;;;;;5068517;28;20048;-84
2021/10/25 05:57:40;;;;;;;14.18;8.95;;;7.10;96.60;;;;;;5068298;28;20399;-84
2021/10/25 06:00:07;;;;;;;15.68;9.77;;;7.10;96.70;;;;;;5061263;28;20043;-84
2021/10/25 06:02:37;;;;;;;17.00;11.25;;;7.10;96.70;;;;;;5075635;28;20055;-88
2021/10/25 06:05:06;;;;;;;15.82;11.25;;;7.20;96.80;;;;;;5060921;28;20078;-92
2021/10/25 06:07:31;;;;;;;16.77;11.23;;;7.20;97.10;;;;;;5076917;28;20160;-88
2021/10/25 06:09:57;;;;;;;14.35;9.15;;;7.20;97.20;;;;;;5076357;28;20040;-87
2021/10/25 06:12:25;;;;;;;16.20;10.20;;;7.20;97.20;;;;;;5073800;28;20048;-86
2021/10/25 06:14:52;;;;;;;15.23;10.52;;;7.30;97.20;;;;;;5076694;28;20051;-86
2021/10/25 06:19:49;;;;;;;17.35;10.73;;;7.30;97.40;;;;;;5071902;28;20386;-87
2021/10/25 06:22:18;;;;;;;13.13;9.30;;;7.40;97.50;;;;;;5075452;28;20074;-86
2021/10/25 06:24:45;;;;;;;13.90;8.98;;;7.40;97.50;;;;;;5069862;28;20080;-87
2021/10/25 06:27:11;;;;;;;12.98;9.88;;;7.40;97.30;;;;;;5075560;28;20044;-86
2021/10/25 06:29:37;;;;;;;15.18;8.80;;;7.40;97.30;;;;;;5070434;28;20063;-87
2021/10/25 06:32:03;;;;;;;18.58;10.70;;;7.40;97.20;;;;;;5064848;28;20049;-87
2021/10/25 06:34:36;;;;;;;12.02;8.30;;;7.40;97.10;;;;;;5059667;28;20479;-87
2021/10/25 06:37:02;;;;;;;15.57;10.27;;;7.50;97.20;;;;;;5068706;28;20052;-87
2021/10/25 06:39:33;;;;;;;14.43;9.88;;;7.50;97.10;;;;;;5065791;28;20087;-87
2021/10/25 06:42:00;;;;;;;16.45;10.18;;;7.50;97.10;;;;;;5065565;28;20043;-87
2021/10/25 06:44:26;;;;;;;18.15;10.15;;;7.50;97.20;;;;;;5062511;28;20495;-86
2021/10/25 06:46:51;;;;;;;15.15;10.63;;;7.50;97.20;;;;;;5062037;28;20149;-87
2021/10/25 06:49:17;;;;;;;16.92;11.02;;;7.60;97.40;;;;;;5059409;28;20383;-86
2021/10/25 06:51:43;;;;;;;13.85;9.07;;;7.60;97.60;;;;;;5063538;28;20510;-87
2021/10/25 06:54:09;;;;;;;19.30;12.02;;;7.60;97.60;;;;;;5074351;28;20047;-86
2021/10/25 06:56:35;;;;;;;15.93;9.25;;;7.70;97.60;;;;;;5064264;28;20063;-88
2021/10/25 06:59:01;;;;;;;14.75;8.70;;;7.70;97.60;;;;;;5069963;28;20040;-88
2021/10/25 07:01:29;;;;;;;19.23;10.98;;;7.70;97.30;;;;;;5065474;28;20045;-87
2021/10/25 07:03:54;;;;;;;15.02;9.77;;;7.70;97.40;;;;;;5060914;28;20041;-88
2021/10/25 07:06:20;;;;;;;15.77;9.68;;;7.80;97.60;;;;;;5059825;28;20040;-87
2021/10/25 07:08:47;;;;;;;12.60;8.10;;;7.70;97.50;;;;;;5072934;28;20105;-87
2021/10/25 07:11:14;;;;;;;14.23;9.43;;;7.70;97.30;;;;;;5068859;28;20040;-87
2021/10/25 07:13:46;;;;;;;18.83;11.52;;;7.80;97.30;;;;;;5065125;28;20552;-87
2021/10/25 07:18:58;;;;;;;14.95;9.48;;;7.80;97.70;;;;;;5061250;28;20052;-87
2021/10/25 07:26:18;;;;;;;18.75;10.55;;;7.90;97.70;;;;;;5071175;28;20046;-87
2021/10/25 08:07:07;;;;;;;16.55;10.43;;;8.40;98.60;;;;;;5079769;28;20442;-83
2021/10/25 08:09:52;;;;;;;17.23;11.20;;;8.40;98.60;;;;;;5084721;28;20049;-83
2021/10/25 08:12:23;;;;;;;15.27;9.80;;;8.50;98.70;;;;;;5064212;28;20418;-83
2021/10/25 08:15:09;;;;;;;15.73;9.73;;;8.50;98.70;;;;;;5087307;28;20079;-83
2021/10/25 08:17:48;;;;;;;17.73;11.93;;;8.50;98.50;;;;;;5068222;28;20094;-85
2021/10/25 08:20:14;;;;;;;16.52;11.65;;;8.50;98.60;;;;;;5067070;28;20134;-85
2021/10/25 08:22:41;;;;;;;15.35;10.88;;;8.50;98.60;;;;;;5066088;28;20092;-85
2021/10/25 08:25:07;;;;;;;18.70;10.18;;;8.60;98.80;;;;;;5063831;28;20483;-85
2021/10/25 08:27:33;;;;;;;17.75;12.48;;;8.60;98.70;;;;;;5071480;28;20051;-85
2021/10/25 08:29:59;;;;;;;13.50;10.05;;;8.60;98.60;;;;;;5074217;28;20483;-87
2021/10/25 08:32:38;;;;;;;15.68;11.65;;;8.70;98.80;;;;;;5074130;28;20081;-86
2021/10/25 08:35:34;;;;;;;16.23;11.90;;;8.70;98.80;;;;;;5067779;28;20119;-86
2021/10/25 08:40:39;;;;;;;20.10;11.85;;;8.70;98.80;;;;;;5073034;28;20550;-87
2021/10/25 08:43:05;;;;;;;17.88;10.65;;;8.70;98.90;;;;;;5068169;28;20048;-87
2021/10/25 08:45:33;;;;;;;23.13;14.02;;;8.80;98.90;;;;;;5069931;28;20032;-87
2021/10/25 08:48:01;;;;;;;19.30;12.90;;;8.80;98.90;;;;;;5070602;28;20097;-87
2021/10/25 08:50:33;;;;;;;13.38;9.65;;;8.80;99.10;;;;;;5074835;28;20032;-88
2021/10/25 08:53:00;;;;;;;21.03;12.33;;;8.90;99.00;;;;;;5072675;28;20048;-86
2021/10/25 08:55:26;;;;;;;21.05;12.20;;;8.90;99.00;;;;;;5063197;28;20044;-86
2021/10/25 08:57:56;;;;;;;15.68;11.15;;;8.90;99.20;;;;;;5080136;28;20438;-85
2021/10/25 09:00:38;;;;;;;15.25;10.65;;;8.90;99.40;;;;;;5085666;28;20063;-87
2021/10/25 09:03:04;;;;;;;16.70;12.57;;;9.00;99.10;;;;;;5066851;28;20041;-87
2021/10/25 09:05:33;;;;;;;12.32;8.98;;;9.00;99.10;;;;;;5071306;28;20059;-86
2021/10/25 09:08:04;;;;;;;17.17;12.60;;;9.00;99.10;;;;;;5059303;28;20048;-86
2021/10/25 09:10:36;;;;;;;15.90;11.75;;;9.00;99.10;;;;;;5073902;28;20119;-87
2021/10/25 09:13:16;;;;;;;12.35;8.82;;;9.10;99.30;;;;;;5065465;28;20403;-85
2021/10/25 09:15:52;;;;;;;16.40;11.68;;;9.10;99.10;;;;;;5064978;28;20419;-85
2021/10/25 09:18:23;;;;;;;17.13;11.27;;;9.10;99.10;;;;;;5092322;28;20072;-87
2021/10/25 09:21:09;;;;;;;19.75;13.02;;;9.10;99.10;;;;;;5063601;28;20460;-86
2021/10/25 09:23:47;;;;;;;20.02;12.82;;;9.20;99.30;;;;;;5064400;28;20066;-86
2021/10/25 09:26:16;;;;;;;14.52;10.60;;;9.20;99.40;;;;;;5063476;28;20036;-86
2021/10/25 09:28:50;;;;;;;17.33;12.52;;;9.20;99.40;;;;;;5072312;28;20045;-86
2021/10/25 09:31:19;;;;;;;;;;;9.30;99.40;;;;;;5071692;28;20048;-86
2021/10/25 09:33:57;;;;;;;20.35;13.10;;;9.30;99.40;;;;;;5095380;28;19920;-87
2021/10/25 09:36:37;;;;;;;19.00;13.55;;;9.30;99.40;;;;;;5078948;28;20080;-86
2021/10/25 09:39:13;;;;;;;22.83;14.13;;;9.30;99.50;;;;;;5062858;28;20040;-87
2021/10/25 09:49:52;;;;;;;15.48;10.90;;;9.50;99.70;;;;;;5077441;28;20127;-85
2021/10/25 09:52:18;;;;;;;14.27;10.20;;;9.50;99.60;;;;;;5071061;28;20036;-85
2021/10/25 09:54:43;;;;;;;18.73;11.68;;;9.50;99.60;;;;;;5074631;28;20032;-85
2021/10/25 09:57:12;;;;;;;21.98;11.20;;;9.50;99.40;;;;;;5076807;28;21491;-85
2021/10/25 09:59:50;;;;;;;25.48;13.40;;;9.50;99.40;;;;;;5071174;28;20051;-85
2021/10/25 10:02:17;;;;;;;19.83;13.60;;;9.60;99.50;;;;;;5075663;28;20055;-84
2021/10/25 10:04:45;;;;;;;19.70;13.25;;;9.60;99.70;;;;;;5076172;28;20032;-86
2021/10/25 10:07:17;;;;;;;16.42;11.40;;;9.60;99.70;;;;;;5075570;28;20486;-84
2021/10/25 10:09:47;;;;;;;13.90;10.23;;;9.60;99.70;;;;;;5093343;28;20537;-84
2021/10/25 10:12:20;;;;;;;18.38;12.23;;;9.70;99.70;;;;;;5074469;28;20056;-84
2021/10/25 10:14:58;;;;;;;20.42;12.65;;;9.70;99.60;;;;;;5077230;28;20083;-85
2021/10/25 10:21:19;;;;;;;16.25;11.90;;;9.70;99.70;;;;;;5061113;28;20101;-85
2021/10/25 10:24:04;;;;;;;18.98;11.18;;;9.70;99.80;;;;;;5068173;28;20075;-85
2021/10/25 10:26:40;;;;;;;18.17;12.63;;;9.80;99.80;;;;;;5070050;28;20626;-86
2021/10/25 10:29:14;;;;;;;19.00;12.20;;;9.80;99.80;;;;;;5066881;28;20040;-86
2021/10/25 10:31:40;;;;;;;15.65;11.18;;;9.80;99.80;;;;;;5069371;28;20040;-87
2021/10/25 10:34:11;;;;;;;17.58;10.88;;;9.90;99.80;;;;;;5072397;28;20513;-87
2021/10/25 10:36:51;;;;;;;14.15;10.82;;;9.90;99.90;;;;;;5071484;28;20044;-87
2021/10/25 10:39:17;;;;;;;14.32;10.57;;;9.90;99.90;;;;;;5061587;28;20078;-87
2021/10/25 10:41:53;;;;;;;20.75;11.40;;;9.90;99.90;;;;;;5074470;28;20132;-89
2021/10/25 10:44:21;;;;;;;19.17;11.95;;;10.00;99.90;;;;;;5074753;28;20185;-88
2021/10/25 10:47:13;;;;;;;17.63;10.50;;;10.00;99.90;;;;;;5072273;28;20043;-88
2021/10/25 10:49:55;;;;;;;13.73;9.77;;;10.00;99.90;;;;;;5068513;28;20044;-88
2021/10/25 10:52:35;;;;;;;15.32;10.10;;;10.10;99.90;;;;;;5059321;28;20041;-90
2021/10/25 10:55:18;;;;;;;16.33;10.85;;;10.10;99.90;;;;;;5074917;28;20097;-89
2021/10/25 11:01:20;;;;;;;13.60;9.82;;;10.10;99.90;;;;;;5060018;28;20040;-88
2021/10/25 11:03:58;;;;;;;14.10;10.00;;;10.10;99.90;;;;;;5064915;28;20075;-87
2021/10/25 11:06:31;;;;;;;13.90;10.90;;;10.10;99.90;;;;;;5075310;28;20479;-88
2021/10/25 11:08:57;;;;;;;16.85;11.55;;;10.20;99.90;;;;;;5074274;28;20043;-87
2021/10/25 11:11:23;;;;;;;16.60;12.73;;;10.20;99.90;;;;;;5075673;28;20040;-85
2021/10/25 11:14:12;;;;;;;47.65;28.08;;;10.20;99.90;;;;;;5050806;28;20049;-86
2021/10/25 11:16:44;;;;;;;23.27;16.52;;;10.20;99.90;;;;;;5031041;28;20103;-86
2021/10/25 11:19:13;;;;;;;16.80;13.43;;;10.20;99.90;;;;;;5050269;28;20045;-87
2021/10/25 11:21:52;;;;;;;18.20;12.32;;;10.30;99.90;;;;;;5037876;28;20405;-88
2021/10/25 11:24:24;;;;;;;14.90;11.45;;;10.30;99.90;;;;;;5047504;28;20090;-87
2021/10/25 11:27:05;;;;;;;17.40;11.10;;;10.30;99.90;;;;;;5037681;28;20040;-87
2021/10/25 11:29:33;;;;;;;17.92;12.02;;;10.30;99.90;;;;;;5042350;28;20048;-86
2021/10/25 11:32:05;;;;;;;21.15;13.38;;;10.30;99.90;;;;;;5036309;28;20543;-86
2021/10/25 11:34:34;;;;;;;16.77;11.40;;;10.40;99.90;;;;;;5045185;28;20053;-87
2021/10/25 11:37:16;;;;;;;19.27;13.35;;;10.40;99.90;;;;;;5039062;28;20049;-86
2021/10/25 11:40:08;;;;;;;13.70;9.85;;;10.40;99.90;;;;;;5052120;28;20053;-86
2021/10/25 11:42:39;;;;;;;17.75;12.68;;;10.40;99.90;;;;;;5035585;28;20033;-86
2021/10/25 11:45:14;;;;;;;22.90;13.90;;;10.40;99.90;;;;;;5051556;28;20040;-86
2021/10/25 11:47:43;;;;;;;18.38;12.40;;;10.50;99.90;;;;;;5050702;28;20052;-88
2021/10/25 11:50:10;;;;;;;24.02;14.63;;;10.50;99.90;;;;;;5051228;28;20052;-87
2021/10/25 11:52:43;;;;;;;17.65;11.35;;;10.50;99.90;;;;;;5048062;28;20061;-87
2021/10/25 11:55:12;;;;;;;19.35;12.20;;;10.50;99.90;;;;;;5040580;28;20045;-87
2021/10/25 11:57:48;;;;;;;23.88;15.27;;;10.50;99.90;;;;;;5043307;28;20041;-87
2021/10/25 12:00:16;;;;;;;19.60;13.15;;;10.50;99.90;;;;;;5035360;28;20396;-88
2021/10/25 12:02:44;;;;;;;20.95;12.73;;;10.50;99.90;;;;;;5048333;28;20507;-87
2021/10/25 12:05:10;;;;;;;17.85;12.43;;;10.50;99.90;;;;;;5042112;28;20045;-87
2021/10/25 12:07:49;;;;;;;22.17;14.85;;;10.50;99.90;;;;;;5044132;28;20365;-88
2021/10/25 12:10:16;;;;;;;19.60;12.80;;;10.50;99.90;;;;;;5050300;28;20048;-88
2021/10/25 12:12:42;;;;;;;17.83;13.02;;;10.50;99.90;;;;;;5050489;28;20045;-87
2021/10/25 12:15:13;;;;;;;23.98;16.10;;;10.50;99.90;;;;;;5063168;28;20412;-87
2021/10/25 12:17:38;;;;;;;24.20;15.05;;;10.50;99.90;;;;;;5058539;28;20048;-87
2021/10/25 12:20:08;;;;;;;21.65;13.30;;;10.60;99.90;;;;;;5066493;28;20045;-87
2021/10/25 12:22:34;;;;;;;22.65;12.30;;;10.60;99.90;;;;;;5058873;28;20041;-86
2021/10/25 12:25:00;;;;;;;21.15;14.10;;;10.60;99.90;;;;;;5057795;28;20053;-88
2021/10/25 12:27:40;;;;;;;23.35;17.17;;;10.60;99.90;;;;;;5071168;28;20040;-87
2021/10/25 12:30:14;;;;;;;25.20;17.45;;;10.60;99.90;;;;;;5060248;22;20037;-87
2021/10/25 12:33:00;;;;;;;23.48;16.42;;;10.70;99.90;;;;;;5042908;28;20476;-87
2021/10/25 12:35:30;;;;;;;28.80;15.52;;;10.70;99.90;;;;;;5042598;28;20504;-87
2021/10/25 12:38:00;;;;;;;23.13;16.85;;;10.70;99.90;;;;;;5037029;28;20053;-87
2021/10/25 12:40:27;;;;;;;33.42;20.83;;;10.70;99.90;;;;;;5047446;28;20575;-88
2021/10/25 12:43:00;;;;;;;23.20;15.20;;;10.70;99.90;;;;;;5051736;28;20095;-87
2021/10/25 12:45:30;;;;;;;21.48;14.32;;;10.80;99.90;;;;;;5055895;28;20418;-87
2021/10/25 12:48:00;;;;;;;21.60;13.75;;;10.80;99.90;;;;;;5040359;28;20045;-88
2021/10/25 12:50:34;;;;;;;23.65;14.93;;;10.80;99.90;;;;;;5051160;28;20492;-87
2021/10/25 12:53:05;;;;;;;27.98;18.63;;;10.80;99.90;;;;;;5046922;28;20444;-87
2021/10/25 12:55:31;;;;;;;26.83;15.30;;;10.80;99.90;;;;;;5039105;28;20045;-86
2021/10/25 12:57:57;;;;;;;19.55;12.23;;;10.90;99.90;;;;;;5045185;28;20521;-87
2021/10/25 13:00:24;;;;;;;27.50;13.50;;;10.80;99.90;;;;;;5052954;28;20056;-87
2021/10/25 13:02:55;;;;;;;27.50;16.63;;;10.80;99.90;;;;;;5054010;28;20067;-87
2021/10/25 13:05:27;;;;;;;17.98;11.75;;;10.90;99.90;;;;;;5054299;28;20123;-88
2021/10/25 13:07:59;;;;;;;28.48;17.25;;;10.90;99.90;;;;;;5046347;28;20046;-87
2021/10/25 13:10:30;;;;;;;24.20;15.15;;;10.90;99.90;;;;;;5047248;28;20041;-87
2021/10/25 13:12:59;;;;;;;28.73;16.58;;;10.90;99.90;;;;;;5053919;28;20037;-88
2021/10/25 13:15:25;;;;;;;25.95;15.82;;;11.00;99.90;;;;;;5056151;28;20045;-87
2021/10/25 13:17:51;;;;;;;25.83;15.25;;;11.00;99.90;;;;;;5054755;28;20041;-87
2021/10/25 13:20:20;;;;;;;25.10;15.70;;;11.00;99.90;;;;;;5050430;28;20508;-87
2021/10/25 13:22:47;;;;;;;25.77;17.05;;;11.10;99.90;;;;;;5054416;28;20444;-88
2021/10/25 13:25:13;;;;;;;20.60;12.27;;;11.00;99.90;;;;;;5045577;28;20091;-88
2021/10/25 13:27:39;;;;;;;21.52;13.68;;;11.10;99.90;;;;;;5040993;28;20041;-86
2021/10/25 13:30:07;;;;;;;27.60;17.17;;;11.10;99.70;;;;;;5039106;28;20527;-87
2021/10/25 13:32:35;;;;;;;22.80;15.98;;;11.10;99.70;;;;;;5039122;28;20476;-87
2021/10/25 13:35:11;;;;;;;24.42;16.27;;;11.10;99.80;;;;;;5041328;28;20391;-87
2021/10/25 13:37:37;;;;;;;22.85;17.00;;;11.10;99.80;;;;;;5047745;28;20044;-86
2021/10/25 13:40:05;;;;;;;26.27;17.02;;;11.10;99.80;;;;;;5047114;28;20037;-87
2021/10/25 13:42:31;;;;;;;25.05;15.75;;;11.10;99.90;;;;;;5043099;28;20438;-86
2021/10/25 13:44:56;;;;;;;27.08;16.98;;;11.10;99.90;;;;;;5051535;28;20128;-86
2021/10/25 13:47:22;;;;;;;32.05;17.95;;;11.20;99.90;;;;;;5052224;28;20052;-86
2021/10/25 13:49:48;;;;;;;27.35;15.90;;;11.20;99.90;;;;;;5040251;28;20076;-87
2021/10/25 13:52:15;;;;;;;26.17;15.38;;;11.20;99.90;;;;;;5051193;28;20086;-86
2021/10/25 13:54:40;;;;;;;32.78;24.15;;;11.20;99.90;;;;;;5051579;28;20045;-87
2021/10/25 13:57:09;;;;;;;34.13;22.75;;;11.20;99.70;;;;;;5053696;28;20366;-85
2021/10/25 13:59:38;;;;;;;34.17;23.13;;;11.20;99.70;;;;;;5052313;28;20048;-87
2021/10/25 14:02:07;;;;;;;28.02;17.00;;;11.20;99.80;;;;;;5044514;28;20072;-86
2021/10/25 14:04:38;;;;;;;29.77;16.90;;;11.30;99.80;;;;;;5047168;28;20052;-86
2021/10/25 14:07:06;;;;;;;26.58;17.05;;;11.30;99.80;;;;;;5050851;28;20071;-85
2021/10/25 14:09:31;;;;;;;25.35;16.33;;;11.30;99.80;;;;;;5052882;28;20488;-86
2021/10/25 14:11:59;;;;;;;22.75;14.85;;;11.30;99.80;;;;;;5052842;28;20051;-85
2021/10/25 14:14:27;;;;;;;27.05;17.23;;;11.30;99.70;;;;;;5050033;28;20041;-86
2021/10/25 14:16:54;;;;;;;26.48;14.77;;;11.30;99.70;;;;;;5047506;28;20056;-85
2021/10/25 14:19:22;;;;;;;22.30;14.00;;;11.30;99.70;;;;;;5047688;28;20034;-86
2021/10/25 14:21:50;;;;;;;21.83;14.32;;;11.30;99.60;;;;;;5053389;28;20127;-86
2021/10/25 14:24:16;;;;;;;28.90;15.90;;;11.40;99.60;;;;;;5039969;28;20162;-87
2021/10/25 14:26:42;;;;;;;26.77;15.98;;;11.40;99.60;;;;;;5042422;28;20091;-84